sensor_id;sensor_type;location;lat;lon;timestamp;temperature;humidity
30150;DHT22;16962;48.646;9.026;2023-11-18T00:00:31;3.20;99.90
30150;DHT22;16962;48.646;9.026;2023-11-18T00:03:23;3.20;99.90
30150;DHT22;16962;48.646;9.026;2023-11-18T00:06:15;3.10;99.90
30150;DHT22;16962;48.646;9.026;2023-11-18T00:09:02;3.10;99.90
30150;DHT22;16962;48.646;9.026;2023-11-18T00:11:50;3.10;99.90
30150;DHT22;16962;48.646;9.026;2023-11-18T00:14:37;3.10;99.90
30150;DHT22;16962;48.646;9.026;2023-11-18T00:17:25;3.20;99.90
30150;DHT22;16962;48.646;9.026;2023-11-18T00:20:15;3.20;99.90
30150;DHT22;16962;48.646;9.026;2023-11-18T00:23:03;3.20;99.90
30150;DHT22;16962;48.646;9.026;2023-11-18T00:25:57;3.20;99.90
30150;DHT22;16962;48.646;9.026;2023-11-18T00:28:48;3.20;99.90
30150;DHT22;16962;48.646;9.026;2023-11-18T00:31:39;3.30;99.90
30150;DHT22;16962;48.646;9.026;2023-11-18T00:34:26;3.30;99.90
30150;DHT22;16962;48.646;9.026;2023-11-18T00:37:15;3.30;99.90
30150;DHT22;16962;48.646;9.026;2023-11-18T00:40:10;3.30;99.90
30150;DHT22;16962;48.646;9.026;2023-11-18T00:42:58;3.40;99.90
30150;DHT22;16962;48.646;9.026;2023-11-18T00:45:48;3.40;99.90
30150;DHT22;16962;48.646;9.026;2023-11-18T00:48:36;3.50;99.90
30150;DHT22;16962;48.646;9.026;2023-11-18T00:51:23;3.50;99.90
30150;DHT22;16962;48.646;9.026;2023-11-18T00:54:21;3.50;99.90
30150;DHT22;16962;48.646;9.026;2023-11-18T00:57:09;3.50;99.90
30150;DHT22;16962;48.646;9.026;2023-11-18T00:59:57;3.50;99.90
30150;DHT22;16962;48.646;9.026;2023-11-18T01:02:45;3.50;99.90
30150;DHT22;16962;48.646;9.026;2023-11-18T01:05:37;3.50;99.90
30150;DHT22;16962;48.646;9.026;2023-11-18T01:08:33;3.50;99.90
30150;DHT22;16962;48.646;9.026;2023-11-18T01:11:23;3.50;99.90
30150;DHT22;16962;48.646;9.026;2023-11-18T01:14:13;3.50;99.90
30150;DHT22;16962;48.646;9.026;2023-11-18T01:17:00;3.50;99.90
30150;DHT22;16962;48.646;9.026;2023-11-18T01:19:48;3.60;99.90
30150;DHT22;16962;48.646;9.026;2023-11-18T01:22:36;3.60;99.90
30150;DHT22;16962;48.646;9.026;2023-11-18T01:25:24;3.60;99.90
30150;DHT22;16962;48.646;9.026;2023-11-18T01:28:12;3.60;99.90
30150;DHT22;16962;48.646;9.026;2023-11-18T01:31:03;3.60;99.90
30150;DHT22;16962;48.646;9.026;2023-11-18T01:33:59;3.60;99.90
30150;DHT22;16962;48.646;9.026;2023-11-18T01:36:49;3.60;99.90
30150;DHT22;16962;48.646;9.026;2023-11-18T01:39:36;3.70;99.90
30150;DHT22;16962;48.646;9.026;2023-11-18T01:42:28;3.70;99.90
30150;DHT22;16962;48.646;9.026;2023-11-18T01:45:18;3.70;99.90
30150;DHT22;16962;48.646;9.026;2023-11-18T01:48:05;3.70;99.90
30150;DHT22;16962;48.646;9.026;2023-11-18T01:51:01;3.70;99.90
30150;DHT22;16962;48.646;9.026;2023-11-18T01:53:49;3.70;99.90
30150;DHT22;16962;48.646;9.026;2023-11-18T01:56:37;3.70;99.90
30150;DHT22;16962;48.646;9.026;2023-11-18T01:59:25;3.70;99.90
30150;DHT22;16962;48.646;9.026;2023-11-18T02:02:13;3.60;99.90
30150;DHT22;16962;48.646;9.026;2023-11-18T02:05:03;3.60;99.90
30150;DHT22;16962;48.646;9.026;2023-11-18T02:07:53;3.60;99.90
30150;DHT22;16962;48.646;9.026;2023-11-18T02:10:49;3.60;99.90
30150;DHT22;16962;48.646;9.026;2023-11-18T02:13:43;3.60;99.90
30150;DHT22;16962;48.646;9.026;2023-11-18T02:16:34;3.60;99.90
30150;DHT22;16962;48.646;9.026;2023-11-18T02:19:24;3.60;99.90
30150;DHT22;16962;48.646;9.026;2023-11-18T02:22:12;3.70;99.90
30150;DHT22;16962;48.646;9.026;2023-11-18T02:25:02;3.60;99.90
30150;DHT22;16962;48.646;9.026;2023-11-18T02:27:54;3.60;99.90
30150;DHT22;16962;48.646;9.026;2023-11-18T02:30:42;3.60;99.90
30150;DHT22;16962;48.646;9.026;2023-11-18T02:33:36;3.50;99.90
30150;DHT22;16962;48.646;9.026;2023-11-18T02:36:32;3.50;99.90
30150;DHT22;16962;48.646;9.026;2023-11-18T02:39:32;3.50;99.90
30150;DHT22;16962;48.646;9.026;2023-11-18T02:42:25;3.40;99.90
30150;DHT22;16962;48.646;9.026;2023-11-18T02:45:14;3.40;99.90
30150;DHT22;16962;48.646;9.026;2023-11-18T02:48:05;3.30;99.90
30150;DHT22;16962;48.646;9.026;2023-11-18T02:50:55;3.20;99.90
30150;DHT22;16962;48.646;9.026;2023-11-18T02:53:43;3.20;99.90
30150;DHT22;16962;48.646;9.026;2023-11-18T02:56:32;3.10;99.90
30150;DHT22;16962;48.646;9.026;2023-11-18T02:59:20;3.00;99.90
30150;DHT22;16962;48.646;9.026;2023-11-18T03:02:07;3.00;99.90
30150;DHT22;16962;48.646;9.026;2023-11-18T03:04:57;2.90;99.90
30150;DHT22;16962;48.646;9.026;2023-11-18T03:07:45;2.90;99.90
30150;DHT22;16962;48.646;9.026;2023-11-18T03:10:37;2.80;99.90
30150;DHT22;16962;48.646;9.026;2023-11-18T03:13:26;2.80;99.90
30150;DHT22;16962;48.646;9.026;2023-11-18T03:16:17;2.80;99.90
30150;DHT22;16962;48.646;9.026;2023-11-18T03:19:05;2.80;99.90
30150;DHT22;16962;48.646;9.026;2023-11-18T03:21:52;2.80;99.90
30150;DHT22;16962;48.646;9.026;2023-11-18T03:24:40;2.90;99.90
30150;DHT22;16962;48.646;9.026;2023-11-18T03:27:28;2.90;99.90
30150;DHT22;16962;48.646;9.026;2023-11-18T03:30:16;3.00;99.90
30150;DHT22;16962;48.646;9.026;2023-11-18T03:33:06;3.00;99.90
30150;DHT22;16962;48.646;9.026;2023-11-18T03:35:58;3.00;99.90
30150;DHT22;16962;48.646;9.026;2023-11-18T03:38:45;3.00;99.90
30150;DHT22;16962;48.646;9.026;2023-11-18T03:41:32;2.90;99.90
30150;DHT22;16962;48.646;9.026;2023-11-18T03:44:20;2.80;99.90
30150;DHT22;16962;48.646;9.026;2023-11-18T03:47:07;2.80;99.90
30150;DHT22;16962;48.646;9.026;2023-11-18T03:49:55;2.70;99.90
30150;DHT22;16962;48.646;9.026;2023-11-18T03:52:45;2.70;99.90
30150;DHT22;16962;48.646;9.026;2023-11-18T03:55:33;2.70;99.90
30150;DHT22;16962;48.646;9.026;2023-11-18T03:58:20;2.70;99.90
30150;DHT22;16962;48.646;9.026;2023-11-18T04:01:12;2.70;99.90
30150;DHT22;16962;48.646;9.026;2023-11-18T04:04:06;2.70;99.90
30150;DHT22;16962;48.646;9.026;2023-11-18T04:06:53;2.70;99.90
30150;DHT22;16962;48.646;9.026;2023-11-18T04:09:40;2.80;99.90
30150;DHT22;16962;48.646;9.026;2023-11-18T04:12:31;2.80;99.90
30150;DHT22;16962;48.646;9.026;2023-11-18T04:15:18;2.80;99.90
30150;DHT22;16962;48.646;9.026;2023-11-18T04:18:05;2.90;99.90
30150;DHT22;16962;48.646;9.026;2023-11-18T04:20:53;2.90;99.90
30150;DHT22;16962;48.646;9.026;2023-11-18T04:23:42;2.90;99.90
30150;DHT22;16962;48.646;9.026;2023-11-18T04:26:31;3.00;99.90
30150;DHT22;16962;48.646;9.026;2023-11-18T04:29:18;3.00;99.90
30150;DHT22;16962;48.646;9.026;2023-11-18T04:32:06;3.10;99.90
30150;DHT22;16962;48.646;9.026;2023-11-18T04:34:57;3.20;99.90
30150;DHT22;16962;48.646;9.026;2023-11-18T04:37:45;3.20;99.90
30150;DHT22;16962;48.646;9.026;2023-11-18T04:40:33;3.30;99.90
30150;DHT22;16962;48.646;9.026;2023-11-18T04:43:22;3.20;99.90
30150;DHT22;16962;48.646;9.026;2023-11-18T04:46:25;3.20;99.90
30150;DHT22;16962;48.646;9.026;2023-11-18T04:49:13;3.20;99.90
30150;DHT22;16962;48.646;9.026;2023-11-18T04:52:00;3.20;99.90
30150;DHT22;16962;48.646;9.026;2023-11-18T04:54:47;3.20;99.90
30150;DHT22;16962;48.646;9.026;2023-11-18T04:57:37;3.10;99.90
30150;DHT22;16962;48.646;9.026;2023-11-18T05:00:27;3.10;99.90
30150;DHT22;16962;48.646;9.026;2023-11-18T05:03:16;3.10;99.90
30150;DHT22;16962;48.646;9.026;2023-11-18T05:06:06;3.10;99.90
30150;DHT22;16962;48.646;9.026;2023-11-18T05:08:58;3.20;99.90
30150;DHT22;16962;48.646;9.026;2023-11-18T05:11:45;3.20;99.90
30150;DHT22;16962;48.646;9.026;2023-11-18T05:14:33;3.20;99.90
30150;DHT22;16962;48.646;9.026;2023-11-18T05:17:24;3.20;99.90
30150;DHT22;16962;48.646;9.026;2023-11-18T05:20:13;3.20;99.90
30150;DHT22;16962;48.646;9.026;2023-11-18T05:23:00;3.20;99.90
30150;DHT22;16962;48.646;9.026;2023-11-18T05:25:48;3.10;99.90
30150;DHT22;16962;48.646;9.026;2023-11-18T05:28:40;3.10;99.90
30150;DHT22;16962;48.646;9.026;2023-11-18T05:31:27;3.20;99.90
30150;DHT22;16962;48.646;9.026;2023-11-18T05:34:16;3.20;99.90
30150;DHT22;16962;48.646;9.026;2023-11-18T05:37:03;3.20;99.90
30150;DHT22;16962;48.646;9.026;2023-11-18T05:39:51;3.20;99.90
30150;DHT22;16962;48.646;9.026;2023-11-18T05:42:46;3.10;99.90
30150;DHT22;16962;48.646;9.026;2023-11-18T05:45:38;3.20;99.90
30150;DHT22;16962;48.646;9.026;2023-11-18T05:48:44;3.20;99.90
30150;DHT22;16962;48.646;9.026;2023-11-18T05:51:31;3.20;99.90
30150;DHT22;16962;48.646;9.026;2023-11-18T05:54:18;3.20;99.90
30150;DHT22;16962;48.646;9.026;2023-11-18T05:57:06;3.20;99.90
30150;DHT22;16962;48.646;9.026;2023-11-18T05:59:53;3.20;99.90
30150;DHT22;16962;48.646;9.026;2023-11-18T06:02:45;3.20;99.90
30150;DHT22;16962;48.646;9.026;2023-11-18T06:05:35;3.20;99.90
30150;DHT22;16962;48.646;9.026;2023-11-18T06:08:22;3.10;99.90
30150;DHT22;16962;48.646;9.026;2023-11-18T06:11:14;3.10;99.90
30150;DHT22;16962;48.646;9.026;2023-11-18T06:14:02;3.00;99.90
30150;DHT22;16962;48.646;9.026;2023-11-18T06:16:49;2.90;99.90
30150;DHT22;16962;48.646;9.026;2023-11-18T06:19:37;2.80;99.90
30150;DHT22;16962;48.646;9.026;2023-11-18T06:22:25;2.80;99.90
30150;DHT22;16962;48.646;9.026;2023-11-18T06:25:15;2.80;99.90
30150;DHT22;16962;48.646;9.026;2023-11-18T06:28:03;2.80;99.90
30150;DHT22;16962;48.646;9.026;2023-11-18T06:30:53;2.70;99.90
30150;DHT22;16962;48.646;9.026;2023-11-18T06:33:42;2.70;99.90
30150;DHT22;16962;48.646;9.026;2023-11-18T06:36:33;2.70;99.90
30150;DHT22;16962;48.646;9.026;2023-11-18T06:39:20;2.60;99.90
30150;DHT22;16962;48.646;9.026;2023-11-18T06:42:13;2.60;99.90
30150;DHT22;16962;48.646;9.026;2023-11-18T06:45:01;2.60;99.90
30150;DHT22;16962;48.646;9.026;2023-11-18T06:47:48;2.60;99.90
30150;DHT22;16962;48.646;9.026;2023-11-18T06:50:36;2.60;99.90
30150;DHT22;16962;48.646;9.026;2023-11-18T06:53:26;2.60;99.90
30150;DHT22;16962;48.646;9.026;2023-11-18T06:56:16;2.60;99.90
30150;DHT22;16962;48.646;9.026;2023-11-18T06:59:07;2.60;99.90
30150;DHT22;16962;48.646;9.026;2023-11-18T07:02:00;2.70;99.90
30150;DHT22;16962;48.646;9.026;2023-11-18T07:04:50;2.70;99.90
30150;DHT22;16962;48.646;9.026;2023-11-18T07:07:37;2.70;99.90
30150;DHT22;16962;48.646;9.026;2023-11-18T07:10:25;2.80;99.90
30150;DHT22;16962;48.646;9.026;2023-11-18T07:13:14;2.90;99.90
30150;DHT22;16962;48.646;9.026;2023-11-18T07:16:06;3.00;99.90
30150;DHT22;16962;48.646;9.026;2023-11-18T07:18:56;3.00;99.90
30150;DHT22;16962;48.646;9.026;2023-11-18T07:21:44;3.10;99.90
30150;DHT22;16962;48.646;9.026;2023-11-18T07:24:31;3.30;99.90
30150;DHT22;16962;48.646;9.026;2023-11-18T07:27:19;3.30;99.90
30150;DHT22;16962;48.646;9.026;2023-11-18T07:30:09;3.40;99.90
30150;DHT22;16962;48.646;9.026;2023-11-18T07:32:57;3.50;99.90
30150;DHT22;16962;48.646;9.026;2023-11-18T07:35:48;3.40;99.90
30150;DHT22;16962;48.646;9.026;2023-11-18T07:38:36;3.40;99.90
30150;DHT22;16962;48.646;9.026;2023-11-18T07:41:24;3.40;99.90
30150;DHT22;16962;48.646;9.026;2023-11-18T07:44:11;3.30;99.90
30150;DHT22;16962;48.646;9.026;2023-11-18T07:47:00;3.30;99.90
30150;DHT22;16962;48.646;9.026;2023-11-18T07:49:48;3.40;99.90
30150;DHT22;16962;48.646;9.026;2023-11-18T07:52:36;3.40;99.90
30150;DHT22;16962;48.646;9.026;2023-11-18T07:55:23;3.40;99.90
30150;DHT22;16962;48.646;9.026;2023-11-18T07:58:11;3.50;99.90
30150;DHT22;16962;48.646;9.026;2023-11-18T08:00:58;3.50;99.90
30150;DHT22;16962;48.646;9.026;2023-11-18T08:03:47;3.50;99.90
30150;DHT22;16962;48.646;9.026;2023-11-18T08:06:37;3.50;99.90
30150;DHT22;16962;48.646;9.026;2023-11-18T08:09:27;3.60;99.90
30150;DHT22;16962;48.646;9.026;2023-11-18T08:12:14;3.60;99.90
30150;DHT22;16962;48.646;9.026;2023-11-18T08:15:01;3.60;99.90
30150;DHT22;16962;48.646;9.026;2023-11-18T08:17:50;3.70;99.90
30150;DHT22;16962;48.646;9.026;2023-11-18T08:20:41;3.70;99.90
30150;DHT22;16962;48.646;9.026;2023-11-18T08:23:30;3.80;99.90
30150;DHT22;16962;48.646;9.026;2023-11-18T08:26:18;3.90;99.90
30150;DHT22;16962;48.646;9.026;2023-11-18T08:29:06;3.90;99.90
30150;DHT22;16962;48.646;9.026;2023-11-18T08:31:56;4.00;99.90
30150;DHT22;16962;48.646;9.026;2023-11-18T08:34:43;4.00;99.90
30150;DHT22;16962;48.646;9.026;2023-11-18T08:37:31;4.00;99.90
30150;DHT22;16962;48.646;9.026;2023-11-18T08:40:20;4.00;99.90
30150;DHT22;16962;48.646;9.026;2023-11-18T08:43:09;4.10;99.90
30150;DHT22;16962;48.646;9.026;2023-11-18T08:45:56;4.20;99.90
30150;DHT22;16962;48.646;9.026;2023-11-18T08:48:44;4.20;99.90
30150;DHT22;16962;48.646;9.026;2023-11-18T08:51:31;4.20;99.90
30150;DHT22;16962;48.646;9.026;2023-11-18T08:54:22;4.30;99.90
30150;DHT22;16962;48.646;9.026;2023-11-18T08:57:11;4.40;99.90
30150;DHT22;16962;48.646;9.026;2023-11-18T09:00:15;4.50;99.90
30150;DHT22;16962;48.646;9.026;2023-11-18T09:03:24;4.60;99.90
30150;DHT22;16962;48.646;9.026;2023-11-18T09:06:12;4.70;99.90
30150;DHT22;16962;48.646;9.026;2023-11-18T09:09:05;4.80;99.90
30150;DHT22;16962;48.646;9.026;2023-11-18T09:11:58;4.90;99.90
30150;DHT22;16962;48.646;9.026;2023-11-18T09:14:45;5.10;99.90
30150;DHT22;16962;48.646;9.026;2023-11-18T09:17:34;5.20;99.90
30150;DHT22;16962;48.646;9.026;2023-11-18T09:20:22;5.30;99.90
30150;DHT22;16962;48.646;9.026;2023-11-18T09:23:09;5.20;99.90
30150;DHT22;16962;48.646;9.026;2023-11-18T09:25:57;5.20;99.90
30150;DHT22;16962;48.646;9.026;2023-11-18T09:28:44;5.30;99.90
30150;DHT22;16962;48.646;9.026;2023-11-18T09:31:35;5.30;99.90
30150;DHT22;16962;48.646;9.026;2023-11-18T09:34:24;5.30;84.30
30150;DHT22;16962;48.646;9.026;2023-11-18T09:37:14;5.50;1.00
30150;DHT22;16962;48.646;9.026;2023-11-18T09:40:02;5.50;1.00
30150;DHT22;16962;48.646;9.026;2023-11-18T09:42:58;5.60;99.90
30150;DHT22;16962;48.646;9.026;2023-11-18T09:46:04;5.70;99.90
30150;DHT22;16962;48.646;9.026;2023-11-18T09:49:40;6.00;1.00
30150;DHT22;16962;48.646;9.026;2023-11-18T09:52:28;6.60;99.90
30150;DHT22;16962;48.646;9.026;2023-11-18T09:55:28;6.80;99.90
30150;DHT22;16962;48.646;9.026;2023-11-18T09:58:19;6.80;1.00
30150;DHT22;16962;48.646;9.026;2023-11-18T10:01:11;6.80;99.90
30150;DHT22;16962;48.646;9.026;2023-11-18T10:04:00;6.80;1.00
30150;DHT22;16962;48.646;9.026;2023-11-18T10:06:56;6.90;99.90
30150;DHT22;16962;48.646;9.026;2023-11-18T10:09:47;7.30;1.00
30150;DHT22;16962;48.646;9.026;2023-11-18T10:12:45;7.50;99.90
30150;DHT22;16962;48.646;9.026;2023-11-18T10:15:33;7.40;51.90
30150;DHT22;16962;48.646;9.026;2023-11-18T10:18:22;7.40;99.90
30150;DHT22;16962;48.646;9.026;2023-11-18T10:21:12;7.20;99.90
30150;DHT22;16962;48.646;9.026;2023-11-18T10:24:06;7.00;99.90
30150;DHT22;16962;48.646;9.026;2023-11-18T10:27:01;6.80;99.90
30150;DHT22;16962;48.646;9.026;2023-11-18T10:30:03;6.80;1.00
30150;DHT22;16962;48.646;9.026;2023-11-18T10:33:00;7.00;1.00
30150;DHT22;16962;48.646;9.026;2023-11-18T10:35:53;7.10;1.00
30150;DHT22;16962;48.646;9.026;2023-11-18T10:38:48;7.20;99.90
30150;DHT22;16962;48.646;9.026;2023-11-18T10:41:40;7.30;99.90
30150;DHT22;16962;48.646;9.026;2023-11-18T10:44:30;7.00;99.90
30150;DHT22;16962;48.646;9.026;2023-11-18T10:47:20;6.90;99.90
30150;DHT22;16962;48.646;9.026;2023-11-18T10:50:08;7.00;99.90
30150;DHT22;16962;48.646;9.026;2023-11-18T10:53:02;6.80;99.90
30150;DHT22;16962;48.646;9.026;2023-11-18T10:55:51;6.90;99.90
30150;DHT22;16962;48.646;9.026;2023-11-18T10:58:42;7.00;98.30
30150;DHT22;16962;48.646;9.026;2023-11-18T11:01:31;7.00;67.20
30150;DHT22;16962;48.646;9.026;2023-11-18T11:07:04;7.40;78.50
30150;DHT22;16962;48.646;9.026;2023-11-18T11:09:52;7.40;25.20
30150;DHT22;16962;48.646;9.026;2023-11-18T11:12:50;7.40;1.00
30150;DHT22;16962;48.646;9.026;2023-11-18T11:15:42;7.00;1.00
30150;DHT22;16962;48.646;9.026;2023-11-18T11:18:53;6.70;1.00
30150;DHT22;16962;48.646;9.026;2023-11-18T11:21:51;6.80;1.00
30150;DHT22;16962;48.646;9.026;2023-11-18T11:30:44;6.60;1.00
30150;DHT22;16962;48.646;9.026;2023-11-18T11:36:44;6.40;67.50
30150;DHT22;16962;48.646;9.026;2023-11-18T11:39:35;6.30;99.90
30150;DHT22;16962;48.646;9.026;2023-11-18T11:42:24;6.40;99.90
30150;DHT22;16962;48.646;9.026;2023-11-18T11:45:12;6.40;99.90
30150;DHT22;16962;48.646;9.026;2023-11-18T11:48:08;6.40;99.90
30150;DHT22;16962;48.646;9.026;2023-11-18T11:54:12;6.40;99.90
30150;DHT22;16962;48.646;9.026;2023-11-18T11:57:06;6.40;99.90
30150;DHT22;16962;48.646;9.026;2023-11-18T11:59:55;6.40;1.00
30150;DHT22;16962;48.646;9.026;2023-11-18T12:02:50;6.40;1.00
30150;DHT22;16962;48.646;9.026;2023-11-18T12:05:40;6.40;1.00
30150;DHT22;16962;48.646;9.026;2023-11-18T12:08:35;6.50;1.00
30150;DHT22;16962;48.646;9.026;2023-11-18T12:11:35;6.60;1.00
30150;DHT22;16962;48.646;9.026;2023-11-18T12:14:27;6.70;25.20
30150;DHT22;16962;48.646;9.026;2023-11-18T12:17:15;6.70;1.00
30150;DHT22;16962;48.646;9.026;2023-11-18T12:20:41;6.70;1.00
30150;DHT22;16962;48.646;9.026;2023-11-18T12:23:35;6.60;1.00
30150;DHT22;16962;48.646;9.026;2023-11-18T12:26:41;6.60;1.00
30150;DHT22;16962;48.646;9.026;2023-11-18T12:29:34;6.50;1.00
30150;DHT22;16962;48.646;9.026;2023-11-18T12:43:21;6.40;99.90
30150;DHT22;16962;48.646;9.026;2023-11-18T12:49:07;6.40;1.00
30150;DHT22;16962;48.646;9.026;2023-11-18T12:52:02;6.40;1.00
30150;DHT22;16962;48.646;9.026;2023-11-18T12:54:55;6.40;76.20
30150;DHT22;16962;48.646;9.026;2023-11-18T12:57:49;6.30;23.40
30150;DHT22;16962;48.646;9.026;2023-11-18T13:00:41;6.30;99.90
30150;DHT22;16962;48.646;9.026;2023-11-18T13:03:32;6.30;1.00
30150;DHT22;16962;48.646;9.026;2023-11-18T13:06:24;6.20;59.30
30150;DHT22;16962;48.646;9.026;2023-11-18T13:09:16;6.20;99.90
30150;DHT22;16962;48.646;9.026;2023-11-18T13:12:14;6.20;1.00
30150;DHT22;16962;48.646;9.026;2023-11-18T13:15:02;6.20;99.90
30150;DHT22;16962;48.646;9.026;2023-11-18T13:18:04;6.20;1.00
30150;DHT22;16962;48.646;9.026;2023-11-18T13:20:57;6.20;1.00
30150;DHT22;16962;48.646;9.026;2023-11-18T13:23:47;6.20;99.90
30150;DHT22;16962;48.646;9.026;2023-11-18T13:26:37;6.20;1.00
30150;DHT22;16962;48.646;9.026;2023-11-18T13:29:25;6.20;99.90
30150;DHT22;16962;48.646;9.026;2023-11-18T13:32:17;6.30;1.00
30150;DHT22;16962;48.646;9.026;2023-11-18T13:35:05;6.40;1.00
30150;DHT22;16962;48.646;9.026;2023-11-18T13:37:54;6.40;1.00
30150;DHT22;16962;48.646;9.026;2023-11-18T13:40:46;6.30;1.00
30150;DHT22;16962;48.646;9.026;2023-11-18T13:43:44;6.30;1.00
30150;DHT22;16962;48.646;9.026;2023-11-18T13:46:43;6.20;99.90
30150;DHT22;16962;48.646;9.026;2023-11-18T13:49:34;6.20;1.00
30150;DHT22;16962;48.646;9.026;2023-11-18T13:52:22;6.20;1.00
30150;DHT22;16962;48.646;9.026;2023-11-18T13:55:12;6.20;99.90
30150;DHT22;16962;48.646;9.026;2023-11-18T13:58:05;6.20;99.90
30150;DHT22;16962;48.646;9.026;2023-11-18T14:00:53;6.20;99.90
30150;DHT22;16962;48.646;9.026;2023-11-18T14:03:42;6.10;99.90
30150;DHT22;16962;48.646;9.026;2023-11-18T14:06:31;6.10;1.00
30150;DHT22;16962;48.646;9.026;2023-11-18T14:09:19;6.10;99.90
30150;DHT22;16962;48.646;9.026;2023-11-18T14:12:08;6.10;99.90
30150;DHT22;16962;48.646;9.026;2023-11-18T14:14:56;6.20;99.90
30150;DHT22;16962;48.646;9.026;2023-11-18T14:17:45;6.20;35.30
30150;DHT22;16962;48.646;9.026;2023-11-18T14:20:33;6.20;99.90
30150;DHT22;16962;48.646;9.026;2023-11-18T14:23:22;6.20;99.90
30150;DHT22;16962;48.646;9.026;2023-11-18T14:26:10;6.30;1.00
30150;DHT22;16962;48.646;9.026;2023-11-18T14:28:58;6.30;1.00
30150;DHT22;16962;48.646;9.026;2023-11-18T14:31:49;6.20;44.20
30150;DHT22;16962;48.646;9.026;2023-11-18T14:34:36;6.20;1.00
30150;DHT22;16962;48.646;9.026;2023-11-18T14:37:25;6.20;99.90
30150;DHT22;16962;48.646;9.026;2023-11-18T14:40:13;6.20;99.90
30150;DHT22;16962;48.646;9.026;2023-11-18T14:43:04;6.30;99.90
30150;DHT22;16962;48.646;9.026;2023-11-18T14:45:52;6.30;6.00
30150;DHT22;16962;48.646;9.026;2023-11-18T14:48:40;6.30;99.90
30150;DHT22;16962;48.646;9.026;2023-11-18T14:51:28;6.30;99.90
30150;DHT22;16962;48.646;9.026;2023-11-18T14:54:20;6.30;99.90
30150;DHT22;16962;48.646;9.026;2023-11-18T14:57:07;6.30;1.00
30150;DHT22;16962;48.646;9.026;2023-11-18T14:59:58;6.20;1.00
30150;DHT22;16962;48.646;9.026;2023-11-18T15:02:52;6.20;99.90
30150;DHT22;16962;48.646;9.026;2023-11-18T15:05:46;6.20;99.90
30150;DHT22;16962;48.646;9.026;2023-11-18T15:08:34;6.20;99.90
30150;DHT22;16962;48.646;9.026;2023-11-18T15:11:29;6.20;99.90
30150;DHT22;16962;48.646;9.026;2023-11-18T15:14:21;6.20;34.80
30150;DHT22;16962;48.646;9.026;2023-11-18T15:17:09;6.10;41.20
30150;DHT22;16962;48.646;9.026;2023-11-18T15:20:03;6.20;99.90
30150;DHT22;16962;48.646;9.026;2023-11-18T15:22:54;6.10;99.90
30150;DHT22;16962;48.646;9.026;2023-11-18T15:25:44;6.10;99.90
30150;DHT22;16962;48.646;9.026;2023-11-18T15:28:32;6.10;99.90
30150;DHT22;16962;48.646;9.026;2023-11-18T15:31:22;6.10;99.90
30150;DHT22;16962;48.646;9.026;2023-11-18T15:34:11;6.10;1.00
30150;DHT22;16962;48.646;9.026;2023-11-18T15:36:59;6.00;99.90
30150;DHT22;16962;48.646;9.026;2023-11-18T15:39:48;6.00;99.90
30150;DHT22;16962;48.646;9.026;2023-11-18T15:42:37;6.00;99.90
30150;DHT22;16962;48.646;9.026;2023-11-18T15:45:25;6.10;99.90
30150;DHT22;16962;48.646;9.026;2023-11-18T15:48:14;6.10;99.90
30150;DHT22;16962;48.646;9.026;2023-11-18T15:51:02;6.10;1.00
30150;DHT22;16962;48.646;9.026;2023-11-18T15:53:52;6.10;99.90
30150;DHT22;16962;48.646;9.026;2023-11-18T15:56:40;6.10;99.90
30150;DHT22;16962;48.646;9.026;2023-11-18T15:59:30;6.10;1.00
30150;DHT22;16962;48.646;9.026;2023-11-18T16:02:19;6.10;1.00
30150;DHT22;16962;48.646;9.026;2023-11-18T16:05:10;6.10;99.90
30150;DHT22;16962;48.646;9.026;2023-11-18T16:08:00;6.00;99.90
30150;DHT22;16962;48.646;9.026;2023-11-18T16:10:52;6.00;99.90
30150;DHT22;16962;48.646;9.026;2023-11-18T16:13:44;6.00;89.50
30150;DHT22;16962;48.646;9.026;2023-11-18T16:16:32;6.00;1.00
30150;DHT22;16962;48.646;9.026;2023-11-18T16:19:21;6.00;99.90
30150;DHT22;16962;48.646;9.026;2023-11-18T16:22:09;6.10;99.90
30150;DHT22;16962;48.646;9.026;2023-11-18T16:24:56;6.00;99.90
30150;DHT22;16962;48.646;9.026;2023-11-18T16:27:50;6.00;1.00
30150;DHT22;16962;48.646;9.026;2023-11-18T16:30:38;6.00;1.00
30150;DHT22;16962;48.646;9.026;2023-11-18T16:33:26;6.00;1.00
30150;DHT22;16962;48.646;9.026;2023-11-18T16:36:21;6.00;99.90
30150;DHT22;16962;48.646;9.026;2023-11-18T16:39:11;6.00;99.90
30150;DHT22;16962;48.646;9.026;2023-11-18T16:42:00;6.00;99.90
30150;DHT22;16962;48.646;9.026;2023-11-18T16:44:48;6.00;99.90
30150;DHT22;16962;48.646;9.026;2023-11-18T16:47:36;6.00;99.90
30150;DHT22;16962;48.646;9.026;2023-11-18T16:50:24;6.00;99.90
30150;DHT22;16962;48.646;9.026;2023-11-18T16:53:14;6.00;99.90
30150;DHT22;16962;48.646;9.026;2023-11-18T16:56:04;6.00;80.20
30150;DHT22;16962;48.646;9.026;2023-11-18T16:58:51;6.00;40.20
30150;DHT22;16962;48.646;9.026;2023-11-18T17:01:39;6.00;3.10
30150;DHT22;16962;48.646;9.026;2023-11-18T17:04:26;6.00;1.00
30150;DHT22;16962;48.646;9.026;2023-11-18T17:07:17;6.00;1.00
30150;DHT22;16962;48.646;9.026;2023-11-18T17:10:10;5.90;1.00
30150;DHT22;16962;48.646;9.026;2023-11-18T17:13:03;6.00;1.00
30150;DHT22;16962;48.646;9.026;2023-11-18T17:15:53;6.00;1.00
30150;DHT22;16962;48.646;9.026;2023-11-18T17:18:42;6.00;1.00
30150;DHT22;16962;48.646;9.026;2023-11-18T17:21:30;6.00;1.00
30150;DHT22;16962;48.646;9.026;2023-11-18T17:24:18;5.90;1.00
30150;DHT22;16962;48.646;9.026;2023-11-18T17:27:05;5.90;99.90
30150;DHT22;16962;48.646;9.026;2023-11-18T17:29:54;5.90;99.90
30150;DHT22;16962;48.646;9.026;2023-11-18T17:32:45;5.90;99.90
30150;DHT22;16962;48.646;9.026;2023-11-18T17:35:34;5.90;1.00
30150;DHT22;16962;48.646;9.026;2023-11-18T17:38:22;5.90;99.90
30150;DHT22;16962;48.646;9.026;2023-11-18T17:41:11;5.90;99.90
30150;DHT22;16962;48.646;9.026;2023-11-18T17:44:01;6.00;99.90
30150;DHT22;16962;48.646;9.026;2023-11-18T17:46:49;6.00;99.90
30150;DHT22;16962;48.646;9.026;2023-11-18T17:49:39;5.90;99.90
30150;DHT22;16962;48.646;9.026;2023-11-18T17:52:26;5.90;41.50
30150;DHT22;16962;48.646;9.026;2023-11-18T17:55:16;6.00;29.10
30150;DHT22;16962;48.646;9.026;2023-11-18T17:58:05;5.90;1.00
30150;DHT22;16962;48.646;9.026;2023-11-18T18:00:54;5.90;1.00
30150;DHT22;16962;48.646;9.026;2023-11-18T18:03:41;5.90;1.00
30150;DHT22;16962;48.646;9.026;2023-11-18T18:06:31;5.90;1.00
30150;DHT22;16962;48.646;9.026;2023-11-18T18:09:19;5.90;69.60
30150;DHT22;16962;48.646;9.026;2023-11-18T18:12:14;5.80;98.60
30150;DHT22;16962;48.646;9.026;2023-11-18T18:15:06;5.80;99.90
30150;DHT22;16962;48.646;9.026;2023-11-18T18:17:57;5.80;99.90
30150;DHT22;16962;48.646;9.026;2023-11-18T18:20:45;5.90;22.90
30150;DHT22;16962;48.646;9.026;2023-11-18T18:23:35;6.00;1.00
30150;DHT22;16962;48.646;9.026;2023-11-18T18:26:25;6.10;1.00
30150;DHT22;16962;48.646;9.026;2023-11-18T18:29:15;6.10;99.90
30150;DHT22;16962;48.646;9.026;2023-11-18T18:32:03;6.10;99.90
30150;DHT22;16962;48.646;9.026;2023-11-18T18:34:52;6.10;99.90
30150;DHT22;16962;48.646;9.026;2023-11-18T18:37:44;6.10;99.90
30150;DHT22;16962;48.646;9.026;2023-11-18T18:40:33;6.10;99.90
30150;DHT22;16962;48.646;9.026;2023-11-18T18:43:21;6.10;99.90
30150;DHT22;16962;48.646;9.026;2023-11-18T18:46:09;6.10;99.90